Time;durP1;ratioP1;P1;durP2;ratioP2;P2;SDS_P1;SDS_P2;PMS_P1;PMS_P2;Temp;Humidity;BMP_temperature;BMP_pressure;BME280_temperature;BME280_humidity;BME280_pressure;Samples;Min_cycle;Max_cycle;Signal;HPM_P1;HPM_P2
2022/01/17 00:01:13;;;;;;;51.58;19.88;;;4.90;99.90;;;;;;5154381;27;20230;-52
2022/01/17 00:03:39;;;;;;;43.80;17.58;;;4.80;99.90;;;;;;5154225;27;20167;-51
2022/01/17 00:06:05;;;;;;;50.28;18.88;;;4.90;99.90;;;;;;5154257;27;20167;-50
2022/01/17 00:08:31;;;;;;;48.55;18.77;;;4.80;99.90;;;;;;5154716;27;20560;-51
2022/01/17 00:10:56;;;;;;;45.30;18.77;;;4.80;99.90;;;;;;5154143;27;20248;-51
2022/01/17 00:13:25;;;;;;;42.45;17.70;;;4.80;99.90;;;;;;5154356;27;20175;-52
2022/01/17 00:16:04;;;;;;;42.08;18.40;;;4.80;99.90;;;;;;5154078;27;20650;-51
2022/01/17 00:19:03;;;;;;;56.28;21.52;;;4.80;99.90;;;;;;5154423;27;20159;-51
2022/01/17 00:21:17;;;;;;;39.67;17.23;;;4.90;99.90;;;;;;5153362;27;20630;-51
2022/01/17 00:23:44;;;;;;;44.38;19.73;;;4.80;99.90;;;;;;5154101;27;20167;-45
2022/01/17 00:26:09;;;;;;;42.50;17.65;;;4.90;99.90;;;;;;5154037;27;20690;-45
2022/01/17 00:28:35;;;;;;;54.97;20.63;;;4.90;99.90;;;;;;5153122;27;20167;-45
2022/01/17 00:31:04;;;;;;;48.97;19.85;;;4.90;99.90;;;;;;5154274;27;20213;-45
2022/01/17 00:33:31;;;;;;;44.13;19.10;;;4.90;99.90;;;;;;5154322;27;20255;-45
2022/01/17 00:35:56;;;;;;;53.65;20.58;;;4.90;99.90;;;;;;5153988;27;20202;-44
2022/01/17 00:38:22;;;;;;;53.50;19.98;;;4.90;99.90;;;;;;5153834;27;20206;-45
2022/01/17 00:40:47;;;;;;;54.90;22.10;;;4.80;99.90;;;;;;5153813;27;20167;-46
2022/01/17 00:43:13;;;;;;;49.67;20.15;;;4.90;99.90;;;;;;5153929;27;20163;-51
2022/01/17 00:45:41;;;;;;;50.08;19.88;;;4.90;99.90;;;;;;5154085;27;20205;-52
2022/01/17 00:48:07;;;;;;;45.22;19.33;;;4.90;99.90;;;;;;5153694;27;20159;-45
2022/01/17 00:50:37;;;;;;;52.95;21.58;;;4.90;99.90;;;;;;5153700;27;20614;-45
2022/01/17 00:53:04;;;;;;;55.92;21.10;;;4.90;99.90;;;;;;5153980;27;20179;-45
2022/01/17 00:55:31;;;;;;;39.80;18.75;;;4.90;99.90;;;;;;5153776;27;20294;-45
2022/01/17 00:57:56;;;;;;;44.30;18.73;;;4.90;99.90;;;;;;5153560;27;20607;-45
2022/01/17 01:00:22;;;;;;;44.30;19.30;;;4.90;99.90;;;;;;5153418;27;20463;-44
2022/01/17 01:02:48;;;;;;;57.67;22.55;;;4.90;99.90;;;;;;5153369;27;20619;-45
2022/01/17 01:05:14;;;;;;;49.30;19.65;;;5.00;99.90;;;;;;5153618;27;20171;-48
2022/01/17 01:07:40;;;;;;;44.00;18.73;;;4.90;99.90;;;;;;5153513;27;20186;-45
2022/01/17 01:10:10;;;;;;;44.47;19.33;;;4.90;99.90;;;;;;5153531;27;20164;-45
2022/01/17 01:12:36;;;;;;;51.58;22.65;;;4.90;99.90;;;;;;5153343;27;20225;-46
2022/01/17 01:15:05;;;;;;;60.88;23.77;;;5.00;99.90;;;;;;5153898;27;20207;-45
2022/01/17 01:17:48;;;;;;;46.80;16.98;;;4.90;99.90;;;;;;5154033;27;20541;-45
2022/01/17 01:20:28;;;;;;;52.78;20.30;;;4.90;99.90;;;;;;5153596;27;20254;-44
2022/01/17 01:28:22;;;;;;;60.67;22.50;;;4.90;99.90;;;;;;5153066;27;20170;-45
2022/01/17 01:30:52;;;;;;;47.47;19.70;;;4.90;99.90;;;;;;5153585;27;20171;-44
2022/01/17 01:33:26;;;;;;;54.45;21.58;;;5.00;99.90;;;;;;5153582;27;20171;-45
2022/01/17 01:35:59;;;;;;;48.92;20.30;;;4.90;99.90;;;;;;5153502;27;20398;-44
2022/01/17 01:38:25;;;;;;;58.97;23.65;;;5.00;99.90;;;;;;5153520;27;20174;-45
2022/01/17 01:40:51;;;;;;;52.67;21.38;;;5.00;99.90;;;;;;5156293;27;20168;-45
2022/01/17 01:43:16;;;;;;;56.05;21.98;;;5.00;99.90;;;;;;5157111;27;20189;-45
2022/01/17 01:45:47;;;;;;;62.75;25.17;;;5.00;99.90;;;;;;5157077;27;20216;-44
2022/01/17 01:48:13;;;;;;;56.70;21.98;;;5.00;99.90;;;;;;5157023;27;20167;-45
2022/01/17 01:50:39;;;;;;;53.45;22.23;;;5.00;99.90;;;;;;5157003;27;20186;-47
2022/01/17 01:53:04;;;;;;;53.13;20.45;;;5.00;99.90;;;;;;5156853;27;20254;-44
2022/01/17 01:55:30;;;;;;;59.45;23.35;;;5.00;99.90;;;;;;5157276;27;20199;-45
2022/01/17 01:57:56;;;;;;;54.83;22.38;;;5.00;99.90;;;;;;5156857;27;20166;-44
2022/01/17 02:00:22;;;;;;;51.97;21.15;;;5.00;99.90;;;;;;5156770;27;20669;-45
2022/01/17 02:02:48;;;;;;;53.90;22.63;;;5.10;99.90;;;;;;5156706;27;20164;-45
2022/01/17 02:05:14;;;;;;;58.63;23.45;;;5.00;99.90;;;;;;5156559;27;20163;-44
2022/01/17 02:07:43;;;;;;;51.70;20.15;;;5.00;99.90;;;;;;5156776;27;20163;-45
2022/01/17 02:10:09;;;;;;;53.67;22.70;;;5.10;99.90;;;;;;5156928;27;20171;-44
2022/01/17 02:12:34;;;;;;;63.17;23.15;;;5.10;99.90;;;;;;5156243;27;20214;-44
2022/01/17 02:15:01;;;;;;;54.88;22.83;;;5.00;99.90;;;;;;5156785;27;20246;-46
2022/01/17 02:17:27;;;;;;;58.70;23.58;;;5.00;99.90;;;;;;5156443;27;20538;-45
2022/01/17 02:20:05;;;;;;;59.72;21.25;;;5.10;99.90;;;;;;5156615;27;20184;-45
2022/01/17 02:22:31;;;;;;;48.25;21.55;;;5.10;99.90;;;;;;5156745;27;20567;-45
2022/01/17 02:24:56;;;;;;;58.40;23.52;;;4.70;99.90;;;;;;5156330;27;20171;-45
2022/01/17 02:27:22;;;;;;;35.47;15.68;;;5.10;99.90;;;;;;5156224;27;20163;-44
2022/01/17 02:29:48;;;;;;;55.72;22.52;;;5.10;99.90;;;;;;5156201;27;20167;-45
2022/01/17 02:32:13;;;;;;;56.53;22.08;;;5.10;99.90;;;;;;5156465;27;20159;-44
2022/01/17 02:34:43;;;;;;;57.60;22.90;;;5.10;99.90;;;;;;5156045;27;20654;-46
2022/01/17 02:37:10;;;;;;;50.22;19.67;;;5.10;99.90;;;;;;5156042;27;20159;-44
2022/01/17 02:39:36;;;;;;;49.97;22.25;;;5.10;99.90;;;;;;5156105;27;20172;-45
2022/01/17 02:42:03;;;;;;;47.13;20.38;;;5.10;99.90;;;;;;5156407;27;20203;-44
2022/01/17 02:44:28;;;;;;;57.10;23.48;;;5.20;99.90;;;;;;5156525;27;20175;-44
2022/01/17 02:46:54;;;;;;;53.28;21.25;;;5.10;99.90;;;;;;5156146;27;20171;-44
2022/01/17 02:49:20;;;;;;;51.10;21.77;;;5.10;99.90;;;;;;5156014;27;20264;-44
2022/01/17 02:51:48;;;;;;;54.28;23.92;;;5.10;99.90;;;;;;5154827;27;20501;-44
2022/01/17 02:54:14;;;;;;;55.50;22.20;;;5.10;99.90;;;;;;5155553;27;20738;-45
2022/01/17 02:56:40;;;;;;;58.42;23.67;;;5.20;99.90;;;;;;5155958;27;20167;-45
2022/01/17 02:59:06;;;;;;;50.97;22.83;;;5.20;99.90;;;;;;5155615;27;20738;-45
2022/01/17 03:01:32;;;;;;;57.85;24.35;;;5.20;99.90;;;;;;5155943;27;20179;-45
2022/01/17 03:03:58;;;;;;;55.78;21.85;;;5.20;99.90;;;;;;5156119;27;20614;-46
2022/01/17 03:06:25;;;;;;;57.22;25.98;;;5.20;99.90;;;;;;5155541;27;20155;-44
2022/01/17 03:08:51;;;;;;;57.63;24.42;;;5.10;99.90;;;;;;5155465;27;20159;-45
2022/01/17 03:11:24;;;;;;;73.88;28.83;;;5.20;99.90;;;;;;5155351;27;20306;-45
2022/01/17 03:13:51;;;;;;;55.63;23.85;;;5.20;99.90;;;;;;5155242;27;20239;-44
2022/01/17 03:16:18;;;;;;;60.72;24.52;;;5.10;99.90;;;;;;5155555;27;20174;-44
2022/01/17 03:18:46;;;;;;;70.00;26.05;;;5.20;99.90;;;;;;5155151;27;20162;-45
2022/01/17 03:21:15;;;;;;;67.45;27.00;;;5.20;99.90;;;;;;5155192;27;20260;-47
2022/01/17 03:23:42;;;;;;;59.22;26.83;;;5.20;99.90;;;;;;5155386;27;20175;-44
2022/01/17 03:26:08;;;;;;;59.00;22.45;;;5.20;99.90;;;;;;5155071;27;20167;-48
2022/01/17 03:28:35;;;;;;;50.75;22.50;;;5.20;99.90;;;;;;5155069;27;20163;-45
2022/01/17 03:31:00;;;;;;;55.40;23.98;;;5.20;99.90;;;;;;5155264;27;20164;-45
2022/01/17 03:33:27;;;;;;;67.07;28.67;;;5.20;99.90;;;;;;5154933;27;20166;-45
2022/01/17 03:35:53;;;;;;;55.15;23.38;;;5.20;99.90;;;;;;5154854;27;20251;-44
2022/01/17 03:38:21;;;;;;;68.60;25.15;;;5.20;99.90;;;;;;5155091;27;20167;-50
2022/01/17 03:40:49;;;;;;;58.40;25.30;;;5.20;99.90;;;;;;5154778;27;20160;-44
2022/01/17 03:43:15;;;;;;;48.83;22.65;;;5.20;99.90;;;;;;5136658;27;20637;-44
2022/01/17 03:45:41;;;;;;;61.90;26.77;;;5.30;99.90;;;;;;5154956;27;20167;-45
2022/01/17 03:48:07;;;;;;;53.63;23.88;;;5.30;99.90;;;;;;5154833;27;20171;-45
2022/01/17 03:50:33;;;;;;;58.90;27.55;;;5.30;99.90;;;;;;5154573;27;20166;-45
2022/01/17 03:52:59;;;;;;;59.78;25.42;;;5.30;99.90;;;;;;5154964;27;20175;-45
2022/01/17 03:55:27;;;;;;;53.38;23.35;;;5.30;99.90;;;;;;5154432;27;20203;-44
2022/01/17 03:57:52;;;;;;;56.20;24.90;;;5.30;99.90;;;;;;5154678;27;20179;-44
2022/01/17 04:00:25;;;;;;;63.28;25.90;;;5.30;99.90;;;;;;5154395;27;20167;-44
2022/01/17 04:02:51;;;;;;;42.92;19.90;;;5.30;99.90;;;;;;5154550;27;20191;-45
2022/01/17 04:05:17;;;;;;;58.97;25.30;;;5.20;99.90;;;;;;5154325;27;20164;-45
2022/01/17 04:07:43;;;;;;;56.05;23.75;;;5.20;99.90;;;;;;5135695;27;20171;-44
2022/01/17 04:10:08;;;;;;;60.67;26.02;;;5.10;99.90;;;;;;5154340;27;20176;-44
2022/01/17 04:12:34;;;;;;;57.33;24.33;;;5.10;99.90;;;;;;5154098;27;20248;-45
2022/01/17 04:14:59;;;;;;;54.22;23.88;;;5.20;99.90;;;;;;5154551;27;20207;-45
2022/01/17 04:17:28;;;;;;;52.00;22.65;;;5.20;99.90;;;;;;5154131;27;20219;-50
2022/01/17 04:20:03;;;;;;;58.05;25.60;;;5.10;99.90;;;;;;5154319;27;20174;-49
2022/01/17 04:22:34;;;;;;;64.63;25.75;;;5.20;99.90;;;;;;5154339;27;20630;-49
2022/01/17 04:24:59;;;;;;;48.67;23.85;;;5.10;99.90;;;;;;5154572;27;20171;-50
2022/01/17 04:27:25;;;;;;;53.58;22.83;;;5.10;99.90;;;;;;5154011;27;20262;-52
2022/01/17 04:29:50;;;;;;;55.80;23.50;;;5.20;99.90;;;;;;5154279;27;20163;-52
2022/01/17 04:32:16;;;;;;;54.83;22.70;;;5.10;99.90;;;;;;5154183;27;20159;-53
2022/01/17 04:34:41;;;;;;;55.88;22.75;;;5.10;99.90;;;;;;5153778;27;20662;-52
2022/01/17 04:37:08;;;;;;;57.53;24.25;;;5.00;99.90;;;;;;5154212;27;20168;-51
2022/01/17 04:39:34;;;;;;;57.63;24.45;;;5.10;99.90;;;;;;5153977;27;20171;-44
2022/01/17 04:42:02;;;;;;;56.05;26.15;;;5.10;99.90;;;;;;5154034;27;20262;-44
2022/01/17 04:47:11;;;;;;;60.38;26.30;;;5.20;99.90;;;;;;5153807;27;20206;-44
2022/01/17 04:49:37;;;;;;;60.13;25.73;;;5.20;99.90;;;;;;5153717;27;20199;-44
2022/01/17 04:52:03;;;;;;;42.90;19.95;;;5.20;99.90;;;;;;5153790;27;20300;-45
2022/01/17 04:54:42;;;;;;;53.67;25.25;;;5.20;99.90;;;;;;5154164;27;20199;-45
2022/01/17 04:57:12;;;;;;;59.65;25.58;;;5.20;99.90;;;;;;5153880;27;20196;-47
2022/01/17 04:59:39;;;;;;;48.50;21.65;;;5.20;99.90;;;;;;5153511;27;20192;-45
2022/01/17 05:02:06;;;;;;;55.92;25.35;;;5.20;99.90;;;;;;5153817;27;20303;-51
2022/01/17 05:04:32;;;;;;;62.38;24.33;;;5.30;99.90;;;;;;5153930;27;20578;-44
2022/01/17 05:06:58;;;;;;;53.70;25.33;;;5.20;99.90;;;;;;5153905;27;20163;-44
2022/01/17 05:09:23;;;;;;;55.50;23.08;;;5.20;99.90;;;;;;5153477;27;20168;-44
2022/01/17 05:11:49;;;;;;;55.47;23.90;;;5.30;99.90;;;;;;5153374;27;20271;-45
2022/01/17 05:14:15;;;;;;;55.30;23.02;;;5.30;99.90;;;;;;5154190;27;20263;-44
2022/01/17 05:16:47;;;;;;;54.28;24.35;;;5.20;99.90;;;;;;5157887;27;20171;-45
2022/01/17 05:21:57;;;;;;;54.90;23.92;;;5.20;99.90;;;;;;5157787;27;20255;-46
2022/01/17 05:24:22;;;;;;;56.17;25.40;;;5.20;99.90;;;;;;5157441;27;20250;-46
2022/01/17 05:26:48;;;;;;;53.08;23.17;;;5.20;99.90;;;;;;5157448;27;20250;-45
2022/01/17 05:29:13;;;;;;;63.15;24.98;;;5.20;99.90;;;;;;5157447;27;20212;-45
2022/01/17 05:31:39;;;;;;;52.53;23.23;;;5.20;99.90;;;;;;5156987;27;20160;-45
2022/01/17 05:34:05;;;;;;;61.15;24.95;;;5.20;99.90;;;;;;5157257;27;20304;-45
2022/01/17 05:36:30;;;;;;;54.55;23.92;;;5.20;99.90;;;;;;5157640;27;20622;-45
2022/01/17 05:38:56;;;;;;;51.45;23.13;;;5.20;99.90;;;;;;5157232;27;20199;-45
2022/01/17 05:41:22;;;;;;;54.15;22.10;;;5.20;99.90;;;;;;5157120;27;20201;-45
2022/01/17 05:43:47;;;;;;;56.33;24.60;;;5.20;99.90;;;;;;5157013;27;20159;-45
2022/01/17 05:46:13;;;;;;;52.88;22.00;;;5.20;99.90;;;;;;5157011;27;20171;-45
2022/01/17 05:48:39;;;;;;;55.25;24.42;;;5.20;99.90;;;;;;5138483;27;20649;-46
2022/01/17 05:51:04;;;;;;;47.63;22.25;;;5.20;99.90;;;;;;5156992;27;20534;-45
2022/01/17 05:53:30;;;;;;;54.70;23.42;;;5.10;99.90;;;;;;5157361;27;20170;-46
2022/01/17 05:55:56;;;;;;;48.95;19.27;;;5.20;99.90;;;;;;5156821;27;20682;-46
2022/01/17 05:58:21;;;;;;;51.00;22.75;;;5.10;99.90;;;;;;5156815;27;20167;-45
2022/01/17 06:00:47;;;;;;;48.47;21.10;;;5.10;99.90;;;;;;5156688;27;20202;-45
2022/01/17 06:03:13;;;;;;;48.53;20.55;;;5.20;99.90;;;;;;5156790;27;20212;-45
2022/01/17 06:05:39;;;;;;;55.75;21.52;;;5.20;99.90;;;;;;5156197;27;20627;-45
2022/01/17 06:08:04;;;;;;;45.92;21.85;;;5.30;99.90;;;;;;5156668;27;20168;-44
2022/01/17 06:10:30;;;;;;;47.38;21.45;;;5.20;99.90;;;;;;5156747;27;20213;-45
2022/01/17 06:12:56;;;;;;;49.92;19.85;;;5.20;99.90;;;;;;5156538;27;20585;-45
2022/01/17 06:15:22;;;;;;;44.85;21.58;;;5.20;99.90;;;;;;5156399;27;20223;-49
2022/01/17 06:17:48;;;;;;;40.80;20.27;;;5.20;99.90;;;;;;5156454;27;20159;-45
2022/01/17 06:20:14;;;;;;;45.97;19.48;;;5.30;99.90;;;;;;5156651;27;20179;-47
2022/01/17 06:22:39;;;;;;;47.05;21.20;;;5.30;99.90;;;;;;5156326;27;20160;-44
2022/01/17 06:25:06;;;;;;;44.97;21.98;;;5.30;99.90;;;;;;5156145;27;20211;-45
2022/01/17 06:27:31;;;;;;;44.28;20.95;;;5.30;99.90;;;;;;5155356;27;20686;-47
2022/01/17 06:29:58;;;;;;;43.78;22.20;;;5.30;99.90;;;;;;5156157;27;20261;-45
2022/01/17 06:32:24;;;;;;;56.33;24.50;;;5.30;99.90;;;;;;5154188;27;20162;-47
2022/01/17 06:34:50;;;;;;;49.17;22.88;;;5.30;99.90;;;;;;5154032;27;20195;-47
2022/01/17 06:37:15;;;;;;;43.33;22.20;;;5.30;99.90;;;;;;5154113;27;20175;-44
2022/01/17 06:39:41;;;;;;;45.47;21.60;;;5.30;99.90;;;;;;5154249;27;20163;-47
2022/01/17 06:42:07;;;;;;;51.75;22.88;;;5.40;99.90;;;;;;5154661;27;20169;-44
2022/01/17 06:44:33;;;;;;;52.25;24.35;;;5.30;99.90;;;;;;5154532;27;20618;-44
2022/01/17 06:46:58;;;;;;;50.80;22.30;;;5.30;99.90;;;;;;5156337;27;20164;-45
2022/01/17 06:49:24;;;;;;;48.35;22.67;;;5.40;99.90;;;;;;5155784;27;20190;-44
2022/01/17 06:51:49;;;;;;;46.17;22.67;;;5.40;99.90;;;;;;5155794;27;20195;-44
2022/01/17 06:54:15;;;;;;;40.38;18.75;;;5.40;99.90;;;;;;5155658;27;20263;-44
2022/01/17 06:56:44;;;;;;;47.20;20.95;;;5.40;99.90;;;;;;5140642;27;20201;-46
2022/01/17 06:59:11;;;;;;;53.92;22.70;;;5.40;99.90;;;;;;5124346;27;20178;-46
2022/01/17 07:01:38;;;;;;;52.50;21.38;;;5.40;99.90;;;;;;5154306;27;20533;-45
2022/01/17 07:04:04;;;;;;;44.15;19.83;;;5.40;99.90;;;;;;5154473;27;20175;-44
2022/01/17 07:06:30;;;;;;;45.83;21.17;;;5.40;99.90;;;;;;5154537;27;20678;-46
2022/01/17 07:08:56;;;;;;;51.42;21.67;;;5.40;99.90;;;;;;5154210;27;20167;-42
2022/01/17 07:11:21;;;;;;;48.85;21.23;;;5.40;99.90;;;;;;5153935;27;20399;-45
2022/01/17 07:13:47;;;;;;;43.38;19.83;;;5.40;99.90;;;;;;5154282;27;20307;-45
2022/01/17 07:16:13;;;;;;;45.58;21.23;;;5.40;99.90;;;;;;5153942;27;20288;-44
2022/01/17 07:18:39;;;;;;;45.05;19.63;;;5.30;99.90;;;;;;5153975;27;20198;-46
2022/01/17 07:21:04;;;;;;;43.45;19.77;;;5.40;99.90;;;;;;5153833;27;20184;-47
2022/01/17 07:23:30;;;;;;;42.90;20.52;;;5.40;99.90;;;;;;5154151;27;20168;-47
2022/01/17 07:25:56;;;;;;;44.47;20.75;;;5.40;99.90;;;;;;5135329;27;20528;-45
2022/01/17 07:28:21;;;;;;;43.95;21.15;;;5.40;99.90;;;;;;5135361;27;21088;-45
2022/01/17 07:30:47;;;;;;;31.52;13.55;;;5.40;99.90;;;;;;5153669;27;20174;-45
2022/01/17 07:33:12;;;;;;;39.05;16.63;;;5.40;99.90;;;;;;5153661;27;20652;-45
2022/01/17 07:35:38;;;;;;;47.53;18.92;;;5.40;99.90;;;;;;5153546;27;20211;-45
2022/01/17 07:38:05;;;;;;;47.20;19.67;;;5.40;99.90;;;;;;5153318;27;20170;-47
2022/01/17 07:40:32;;;;;;;47.00;20.88;;;5.40;99.90;;;;;;5154155;27;20522;-45
2022/01/17 07:42:58;;;;;;;47.38;20.90;;;5.40;99.90;;;;;;5153915;27;20216;-44
2022/01/17 07:45:26;;;;;;;41.83;17.85;;;5.60;99.90;;;;;;5153438;27;20230;-45
2022/01/17 07:50:20;;;;;;;37.55;18.80;;;5.50;99.90;;;;;;5153565;27;20167;-44
2022/01/17 07:52:47;;;;;;;45.60;20.35;;;5.50;99.90;;;;;;5153342;27;20689;-45
2022/01/17 07:55:13;;;;;;;38.92;17.90;;;5.50;99.90;;;;;;5153145;27;20211;-46
2022/01/17 07:57:41;;;;;;;39.67;17.90;;;5.50;99.90;;;;;;5153544;27;20586;-46
2022/01/17 08:00:09;;;;;;;42.17;19.35;;;5.50;99.90;;;;;;5153047;27;20221;-46
2022/01/17 08:02:34;;;;;;;40.55;19.63;;;5.50;99.90;;;;;;5153114;27;20185;-51
2022/01/17 08:05:00;;;;;;;46.33;21.20;;;5.50;99.90;;;;;;5153436;27;20657;-50
2022/01/17 08:07:26;;;;;;;39.67;19.08;;;5.50;99.90;;;;;;5153119;27;20155;-51
2022/01/17 08:09:52;;;;;;;39.38;18.13;;;5.50;99.90;;;;;;5152943;27;20686;-46
2022/01/17 08:12:17;;;;;;;42.00;18.88;;;5.50;99.90;;;;;;5152787;27;20298;-52
2022/01/17 08:14:43;;;;;;;45.95;21.67;;;5.50;99.90;;;;;;5153193;27;20658;-48
2022/01/17 08:17:11;;;;;;;38.28;18.48;;;5.50;99.90;;;;;;5152811;27;20195;-48
2022/01/17 08:19:36;;;;;;;45.83;18.20;;;5.50;99.90;;;;;;5153253;27;20209;-49
2022/01/17 08:22:04;;;;;;;40.92;19.10;;;5.50;99.90;;;;;;5153036;27;20642;-49
2022/01/17 08:24:29;;;;;;;36.33;15.02;;;5.60;99.90;;;;;;5152998;27;20250;-50
2022/01/17 08:26:56;;;;;;;37.28;15.30;;;5.60;99.90;;;;;;5152991;27;20262;-48
2022/01/17 08:29:24;;;;;;;37.40;16.67;;;5.60;99.90;;;;;;5152531;27;20683;-48
2022/01/17 08:31:49;;;;;;;43.20;16.90;;;5.70;99.90;;;;;;5152944;27;20171;-47
2022/01/17 08:34:17;;;;;;;44.53;18.73;;;5.70;99.90;;;;;;5152439;27;20571;-50
2022/01/17 08:36:43;;;;;;;34.60;16.77;;;5.60;99.90;;;;;;5152654;27;20164;-50
2022/01/17 08:39:10;;;;;;;39.78;18.70;;;5.60;99.90;;;;;;5152623;27;20159;-49
2022/01/17 08:41:37;;;;;;;36.20;17.27;;;5.60;99.90;;;;;;5152541;27;20626;-50
2022/01/17 08:44:03;;;;;;;34.72;15.27;;;5.70;99.90;;;;;;5152679;27;20179;-50
2022/01/17 08:46:28;;;;;;;30.15;16.00;;;5.60;99.90;;;;;;5152807;27;20171;-51
2022/01/17 08:48:54;;;;;;;41.42;18.77;;;5.10;99.90;;;;;;5151689;27;20167;-51
2022/01/17 08:51:20;;;;;;;35.40;18.17;;;5.70;99.90;;;;;;5152648;27;20171;-50
2022/01/17 08:53:46;;;;;;;44.47;20.15;;;5.70;99.90;;;;;;5152350;27;20563;-49
2022/01/17 08:56:11;;;;;;;47.00;19.05;;;5.60;99.90;;;;;;5152357;27;20192;-51
2022/01/17 08:58:37;;;;;;;36.35;18.23;;;5.70;99.90;;;;;;5152369;27;20160;-51
2022/01/17 09:01:03;;;;;;;44.40;20.77;;;5.60;99.90;;;;;;5152238;27;20171;-48
2022/01/17 09:03:29;;;;;;;39.75;17.10;;;5.70;99.90;;;;;;5152630;27;20429;-46
2022/01/17 09:05:55;;;;;;;51.00;21.85;;;5.60;99.90;;;;;;5152301;27;20167;-47
2022/01/17 09:08:22;;;;;;;40.25;20.48;;;5.60;99.90;;;;;;5133624;27;20174;-50
2022/01/17 09:10:49;;;;;;;49.42;19.92;;;5.70;99.90;;;;;;5152117;27;20219;-51
2022/01/17 09:13:16;;;;;;;39.75;19.45;;;5.70;99.90;;;;;;5152465;27;20258;-51
2022/01/17 09:15:41;;;;;;;45.25;21.52;;;5.80;99.90;;;;;;5152257;27;20211;-49
2022/01/17 09:18:07;;;;;;;45.25;20.83;;;5.80;99.90;;;;;;5152050;27;20167;-49
2022/01/17 09:20:34;;;;;;;44.22;18.77;;;5.80;99.90;;;;;;5133694;27;20178;-49
2022/01/17 09:23:01;;;;;;;38.90;18.90;;;5.80;99.90;;;;;;5152555;27;20175;-49
2022/01/17 09:25:27;;;;;;;40.35;20.23;;;5.80;99.90;;;;;;5151905;27;20163;-47
2022/01/17 09:27:53;;;;;;;33.50;18.02;;;5.90;99.90;;;;;;5152294;27;20178;-49
2022/01/17 09:30:18;;;;;;;46.30;21.17;;;5.90;99.90;;;;;;5152131;27;20166;-50
2022/01/17 09:32:46;;;;;;;41.70;21.48;;;5.90;99.90;;;;;;5152110;27;20266;-50
2022/01/17 09:35:12;;;;;;;41.78;23.10;;;5.90;99.90;;;;;;5151900;27;20214;-51
2022/01/17 09:37:39;;;;;;;49.08;22.35;;;6.10;99.90;;;;;;5152379;27;20164;-51
2022/01/17 09:40:06;;;;;;;41.25;22.10;;;6.30;99.90;;;;;;5152081;27;20163;-51
2022/01/17 09:42:36;;;;;;;46.05;22.73;;;6.40;99.90;;;;;;5152045;27;20163;-50
2022/01/17 09:45:08;;;;;;;45.55;21.30;;;6.40;99.90;;;;;;5152537;27;20163;-51
2022/01/17 09:47:36;;;;;;;43.55;20.83;;;6.40;99.90;;;;;;5151223;27;20159;-45
2022/01/17 09:50:06;;;;;;;26.70;14.90;;;6.30;99.90;;;;;;5151824;27;20178;-50
2022/01/17 09:52:34;;;;;;;32.15;17.17;;;6.30;99.90;;;;;;5151996;27;20250;-52
2022/01/17 09:55:08;;;;;;;39.78;21.00;;;6.30;99.90;;;;;;5151663;27;20296;-46
2022/01/17 09:57:48;;;;;;;35.83;20.02;;;6.30;99.90;;;;;;5151647;27;20179;-47
2022/01/17 10:00:16;;;;;;;30.92;16.02;;;6.30;99.90;;;;;;5152177;27;20582;-44
2022/01/17 10:02:42;;;;;;;39.30;18.63;;;6.30;99.90;;;;;;5155323;27;20175;-44
2022/01/17 10:05:08;;;;;;;44.45;22.23;;;6.40;99.90;;;;;;5155518;27;20537;-47
2022/01/17 10:07:54;;;;;;;41.38;22.33;;;6.40;99.90;;;;;;5155424;27;20164;-47
2022/01/17 10:10:45;;;;;;;36.05;20.75;;;6.40;99.90;;;;;;5155077;27;20172;-47
2022/01/17 10:13:16;;;;;;;39.15;21.08;;;6.40;99.90;;;;;;5143145;27;20266;-50
2022/01/17 10:15:59;;;;;;;42.03;22.08;;;6.40;99.90;;;;;;5155148;27;20255;-54
2022/01/17 10:18:32;;;;;;;37.50;18.88;;;6.40;99.90;;;;;;5155060;27;20187;-48
2022/01/17 10:21:04;;;;;;;32.28;17.17;;;6.40;99.90;;;;;;5136891;27;20178;-47
2022/01/17 10:23:45;;;;;;;41.67;21.90;;;6.40;99.90;;;;;;5155712;27;20174;-52
2022/01/17 10:26:30;;;;;;;36.55;20.30;;;6.50;99.90;;;;;;5155339;27;20250;-48
2022/01/17 10:29:37;;;;;;;34.22;20.58;;;6.50;99.90;;;;;;5155415;27;20227;-52
2022/01/17 10:37:17;;;;;;;39.53;20.42;;;6.70;99.90;;;;;;5155113;27;20657;-49
2022/01/17 10:40:02;;;;;;;36.65;19.90;;;6.90;99.90;;;;;;5154879;27;20178;-46
2022/01/17 10:42:34;;;;;;;33.78;17.23;;;7.10;99.90;;;;;;5154477;27;20220;-42
2022/01/17 10:45:04;;;;;;;29.75;17.27;;;7.10;99.90;;;;;;5155366;27;20175;-45
2022/01/17 10:47:30;;;;;;;30.25;18.08;;;7.00;99.90;;;;;;5155302;27;20173;-45
2022/01/17 10:49:57;;;;;;;24.48;16.02;;;7.00;99.90;;;;;;5151808;27;20163;-45
2022/01/17 10:52:34;;;;;;;31.02;17.20;;;6.90;99.90;;;;;;5134005;27;20263;-46
2022/01/17 10:55:09;;;;;;;37.72;19.25;;;6.90;99.90;;;;;;5134057;27;20289;-44
2022/01/17 10:57:39;;;;;;;28.75;15.52;;;6.90;99.90;;;;;;5134074;27;20622;-47
2022/01/17 11:00:08;;;;;;;33.38;17.95;;;6.90;99.90;;;;;;5134066;27;20213;-44
2022/01/17 11:02:35;;;;;;;24.30;14.95;;;6.80;99.90;;;;;;5133995;27;20164;-50
2022/01/17 11:05:04;;;;;;;35.38;19.27;;;6.80;99.90;;;;;;5133947;27;20627;-48
2022/01/17 11:07:30;;;;;;;30.15;18.52;;;6.80;99.90;;;;;;5133820;27;20199;-54
2022/01/17 11:10:00;;;;;;;31.25;17.58;;;6.70;99.90;;;;;;5133328;27;20204;-46
2022/01/17 11:12:29;;;;;;;31.60;17.20;;;6.80;99.90;;;;;;5132402;27;20290;-50
2022/01/17 11:14:56;;;;;;;32.08;17.27;;;6.80;99.90;;;;;;5133103;27;20203;-40
2022/01/17 11:17:38;;;;;;;31.83;18.55;;;6.70;99.90;;;;;;5133244;27;20551;-49
2022/01/17 11:20:09;;;;;;;28.25;16.58;;;6.80;99.90;;;;;;5133430;27;20164;-45
2022/01/17 11:22:37;;;;;;;24.63;15.77;;;6.70;99.90;;;;;;5133663;27;20175;-52
2022/01/17 11:25:05;;;;;;;32.90;14.68;;;6.80;99.90;;;;;;5133471;27;20172;-52
2022/01/17 11:27:32;;;;;;;30.52;17.80;;;6.80;99.90;;;;;;5114925;27;20164;-49
2022/01/17 11:29:58;;;;;;;30.25;17.45;;;6.80;99.90;;;;;;5133212;27;20283;-46
2022/01/17 11:32:24;;;;;;;32.40;18.75;;;6.90;99.90;;;;;;5133122;27;20203;-54
2022/01/17 11:34:52;;;;;;;27.73;16.42;;;6.90;99.90;;;;;;5132924;27;20654;-50
2022/01/17 11:37:19;;;;;;;34.10;19.45;;;6.90;99.90;;;;;;5133026;27;20199;-53
2022/01/17 11:39:49;;;;;;;36.33;16.92;;;6.90;99.90;;;;;;5133112;27;20168;-53
2022/01/17 11:42:41;;;;;;;32.70;18.90;;;6.90;99.90;;;;;;5133081;27;20176;-48
2022/01/17 11:45:22;;;;;;;28.77;17.10;;;6.90;99.90;;;;;;5132879;27;20208;-50
2022/01/17 11:47:56;;;;;;;38.58;16.77;;;6.90;99.90;;;;;;5132917;27;20619;-50
2022/01/17 11:50:35;;;;;;;24.70;14.68;;;6.80;99.90;;;;;;5132798;27;20542;-52
2022/01/17 11:53:09;;;;;;;33.72;16.85;;;6.80;99.90;;;;;;5133007;27;20247;-56
2022/01/17 11:55:38;;;;;;;27.83;15.15;;;6.80;99.90;;;;;;5132610;27;20275;-54
2022/01/17 11:58:25;;;;;;;34.92;18.23;;;6.80;99.90;;;;;;5132782;27;20171;-50
2022/01/17 12:00:59;;;;;;;27.70;16.08;;;6.80;99.90;;;;;;5132650;27;20743;-56
2022/01/17 12:03:38;;;;;;;33.78;17.23;;;6.80;99.90;;;;;;5132618;27;20246;-53
2022/01/17 12:06:16;;;;;;;29.67;16.88;;;6.80;99.90;;;;;;5132607;27;20592;-54
2022/01/17 12:08:42;;;;;;;31.77;18.58;;;6.80;99.90;;;;;;5132574;27;20171;-55
2022/01/17 12:11:23;;;;;;;27.00;13.52;;;6.80;99.90;;;;;;5132351;27;20261;-53
2022/01/17 12:13:49;;;;;;;22.58;14.73;;;6.70;99.90;;;;;;5132393;27;20698;-49
2022/01/17 12:16:21;;;;;;;36.55;16.75;;;6.70;99.90;;;;;;5140534;27;20202;-59
2022/01/17 12:18:54;;;;;;;32.60;18.65;;;6.70;99.90;;;;;;5152799;27;20185;-62
2022/01/17 12:21:30;;;;;;;28.73;15.57;;;6.70;99.90;;;;;;5153983;27;20171;-62
2022/01/17 12:27:02;;;;;;;26.60;14.23;;;6.70;99.90;;;;;;5154107;27;20258;-56
2022/01/17 12:29:37;;;;;;;25.00;16.70;;;6.70;99.90;;;;;;5154202;27;20159;-52
2022/01/17 12:32:05;;;;;;;29.80;15.13;;;6.70;99.90;;;;;;5154106;27;20254;-51
2022/01/17 12:34:40;;;;;;;28.25;15.60;;;6.80;99.90;;;;;;5153754;27;20195;-62
2022/01/17 12:37:35;;;;;;;23.67;13.25;;;6.80;99.90;;;;;;5153771;27;20265;-62
2022/01/17 12:40:53;;;;;;;31.83;15.43;;;6.70;99.90;;;;;;5153876;27;20164;-52
2022/01/17 12:43:19;;;;;;;32.42;16.35;;;6.70;99.90;;;;;;5130298;27;20183;-60
2022/01/17 12:45:55;;;;;;;28.55;16.25;;;6.70;99.90;;;;;;5151846;27;20182;-55
2022/01/17 12:48:24;;;;;;;31.35;14.43;;;6.80;99.90;;;;;;5120187;27;20187;-57
2022/01/17 12:50:51;;;;;;;33.92;16.25;;;6.70;99.90;;;;;;5112250;28;20612;-59
2022/01/17 12:53:19;;;;;;;26.15;14.88;;;6.80;99.90;;;;;;5112350;28;20165;-50
2022/01/17 12:55:48;;;;;;;34.50;18.30;;;6.80;99.90;;;;;;5112124;28;20207;-58
2022/01/17 12:58:20;;;;;;;34.20;18.08;;;6.70;99.90;;;;;;5112477;28;20169;-55
2022/01/17 13:00:55;;;;;;;35.42;17.52;;;6.70;99.90;;;;;;5112227;28;20185;-60
2022/01/17 13:03:24;;;;;;;32.53;18.02;;;6.70;99.90;;;;;;5076301;28;20172;-60